Terminal Aerodrome Forecast
Issued by NWS Topeka, KS

Home | Current Version | Previous Version | Text Only | Print | Product List | Glossary On
Versions: 1 2 3 4 5 6 7 8 9 10 11 12 13 14 15
000
FTUS43 KTOP 261700
TAFTOP
TAF
KTOP 261720Z 2618/2718 35006KT P6SM BKN006
     FM262000 01006KT P6SM SCT004 OVC011
     FM270200 34006KT 6SM -RASN BR OVC011
     FM271200 31010KT P6SM OVC040=

USA.gov is the U.S. government's official web portal to all federal, state and local government web resources and services.